Plymouth Light

42° 00' 12"N, 70° 36' 04"W, Elevation 54 ft.
Eastern Time

Hourly observations for the last 72 hours

Date Time Temperature (°F) Humi-
dity

(%)
Wind
(mph)
Pressure Rain (in) Sun
(W/m2)
ET
(in)
Air Dew 6 Hour 1 Hr 3 Hr 6 Hr Day
Alt
(in)
Sea
Level

(mb)
Max Min
21 23:00 74.7 73.5 96 W 12 G 19 29.79 1009.0 0.02 0.06 0.06 0 0.098
21 22:00 73.5 72.6 97 WSW 13 G 17 29.79 1008.8 0.03 0.04 0 0.098
21 21:00 73.1 71.9 96 SW 16 G 22 29.80 1009.1 0.01 0.01 0 0.097
21 20:00 73.5 71.4 75.8 72.5 93 SW 13 G 20 29.81 1009.4 0.00 0 0.096
21 19:00 73.5 71.0 92 SW 13 G 19 29.82 1009.7 0.00 11 0.093
21 18:00 75.1 70.3 85 SW 11 G 16 29.82 1010.0 0.00 54 0.091
21 17:00 73.7 70.3 89 WSW 5 G 14 29.85 1010.8 0.00 44 0.088
21 16:00 74.4 70.3 87 SW 16 G 22 29.86 1011.2 0.00 54 0.078
21 15:00 75.3 70.1 84 SW 15 G 19 29.86 1011.2 0.00 636 0.066
21 14:00 74.2 69.7 75.2 70.2 86 SW 14 G 20 29.88 1012.0 0.00 357 0.056
21 13:00 74.4 70.9 89 SSW 9 G 12 29.89 1012.4 0.00 320 0.048
21 12:00 74.6 70.8 88 SSW 10 G 16 29.92 1013.1 0.00 471 0.038
21 11:00 71.5 68.1 89 S 9 G 15 29.93 1013.5 0.00 339 0.028
21 10:00 71.3 67.6 88 S 7 G 10 29.95 1014.4 0.00 464 0.017
21 09:00 74.4 71.6 91 S 6 G 8 29.97 1014.8 0.00 376 0.007
21 08:00 70.4 69.8 70.5 66.2 98 SSW 8 G 11 29.97 1015.0 0.00 260 0.003
21 07:00 69.7 68.8 97 SSW 4 G 6 29.97 1014.9 0.00 90 0.002
21 06:00 69.9 69.0 97 SW 8 G 10 29.97 1014.9 0.00 7 0.002
21 05:00 68.2 66.7 95 WSW 3 G 7 29.98 1015.2 0.00 0 0.002
21 04:00 68.8 66.7 93 WSW 3 G 8 29.98 1015.2 0.00 0 0.002
21 03:00 66.4 63.7 91 WSW 4 G 9 30.00 1015.9 0.00 0 0.001
21 02:00 66.9 63.9 70.8 66.7 90 SW 8 G 11 30.00 1016.0 0.00 0 0.000
21 01:00 67.2 64.5 91 SW 8 G 11 30.00 1015.8 0.00 0 0.000
21 00:00 67.3 64.6 91 SW 7 G 10 30.00 1016.0 0.01 0 0.173
20 23:00 68.8 65.4 89 SW 7 G 10 30.00 1016.1 0.01 0 0.172
20 22:00 68.8 65.1 88 SW 6 G 9 30.00 1016.0 0.01 0 0.171
20 21:00 70.3 65.6 85 SSW 8 G 11 30.00 1015.9 0.01 0 0.170
20 20:00 69.0 66.3 76.2 68.9 91 S 7 G 11 29.98 1015.3 0.01 0 0.169
20 19:00 70.4 67.3 90 S 8 G 12 30.00 1015.8 0.01 30 0.166
20 18:00 71.1 68.0 90 ESE 9 G 11 30.00 1015.9 0.01 204 0.159
20 17:00 71.9 67.8 87 SE 9 G 11 30.01 1016.3 0.01 380 0.147
20 16:00 73.3 67.1 81 ESE 4 G 9 30.02 1016.6 0.01 589 0.132
20 15:00 73.5 65.9 77 E 8 G 10 30.01 1016.4 0.01 714 0.113
20 14:00 76.2 66.1 77.9 69.8 71 NE 6 G 10 30.01 1016.4 0.01 0.01 791 0.093
20 13:00 74.6 65.8 74 NE 8 G 11 30.02 1016.7 0.01 823 0.071
20 12:00 74.7 63.9 69 NNE 9 G 13 30.03 1016.9 0.01 831 0.050
20 11:00 74.8 64.0 69 NNE 10 G 14 30.03 1016.8 0.01 0.01 0.01 763 0.031
20 10:00 77.7 67.6 71 N 2 G 7 30.03 1017.1 0.00 628 0.016
20 09:00 74.3 68.5 82 NW 4 G 8 30.02 1016.6 0.00 476 0.006
20 08:00 69.8 68.6 69.8 66.7 96 WNW 6 G 9 30.02 1016.6 0.00 304 0.001
20 07:00 68.1 67.2 97 WNW 7 G 9 30.01 1016.2 0.00 95 0.000
20 06:00 67.4 66.8 98 WNW 8 G 11 29.99 1015.5 0.00 7 0.000
20 05:00 67.1 66.2 97 NW 7 G 13 29.96 1014.7 0.00 0 0.000
20 04:00 67.6 67.0 98 W 4 G 7 29.96 1014.5 0.00 0 0.000
20 03:00 68.1 67.2 97 WNW 7 G 10 29.94 1014.0 0.00 0 0.000
20 02:00 68.6 67.4 72.9 68.4 96 WNW 8 G 12 29.93 1013.5 0.00 0 0.000
20 01:00 70.6 69.1 95 W 4 G 9 29.92 1013.3 0.00 0 0.000
20 00:00 70.6 69.1 95 W 9 G 12 29.91 1012.9 0.02 0 0.166
19 23:00 69.6 66.9 91 WSW 3 G 14 29.91 1013.0 0.02 0 0.165
19 22:00 70.7 68.6 93 WNW 13 G 17 29.90 1012.4 0.02 0 0.164
19 21:00 72.7 69.3 89 WNW 10 G 14 29.90 1012.4 0.02 0 0.163
19 20:00 72.2 68.5 80.2 72.1 88 WNW 14 G 18 29.89 1012.3 0.02 0.02 0.02 0.02 0 0.161
19 19:00 76.5 68.8 77 W 11 G 15 29.88 1011.8 0.00 5 0.158
19 18:00 78.9 72.6 81 W 9 G 14 29.85 1010.9 0.00 39 0.155
19 17:00 78.2 71.9 81 SW 14 G 18 29.85 1010.9 0.00 81 0.145
19 16:00 78.9 72.6 81 SW 12 G 20 29.85 1010.9 0.00 526 0.128
19 15:00 79.3 73.3 82 SSW 13 G 18 29.87 1011.4 0.00 650 0.109
19 14:00 78.0 72.4 84.3 74.1 83 SSW 11 G 15 29.89 1012.2 0.00 744 0.088
19 13:00 84.0 72.7 69 W 4 G 13 29.90 1012.6 0.00 786 0.066
19 12:00 81.5 72.0 73 WSW 3 G 9 29.92 1013.3 0.00 786 0.046
19 11:00 82.0 70.4 68 WSW 5 G 8 29.93 1013.5 0.00 722 0.028
19 10:00 79.1 71.7 78 WSW 4 G 9 29.92 1013.3 0.00 578 0.014
19 09:00 77.6 72.7 85 WSW 3 G 9 29.93 1013.5 0.00 397 0.005
19 08:00 74.1 72.6 74.5 70.9 95 WSW 5 G 9 29.94 1013.9 0.00 227 0.001
19 07:00 73.8 72.3 95 WSW 6 G 11 29.94 1013.9 0.00 74 0.000
19 06:00 74.4 73.2 96 W 8 G 12 29.93 1013.5 0.00 9 0.000
19 05:00 72.7 72.1 98 W 5 G 11 29.92 1013.1 0.00 0 0.000
19 04:00 71.2 70.6 98 SSW 14 G 19 29.90 1012.5 0.00 0 0.000
19 03:00 72.5 72.2 99 WSW 7 G 12 29.91 1012.8 0.00 0 0.000
19 02:00 71.4 71.1 73.9 68.8 99 SW 10 G 18 29.89 1012.3 0.00 0 0.000
19 01:00 69.8 69.2 98 SSW 8 G 12 29.90 1012.5 0.00 0 0.000
19 00:00 73.2 72.3 97 WSW 4 G 8 29.93 1013.5 0.01 0 0.114

Data generated by WxSolution Version 1.9.1.1, Build 2017.11.27.